createdAt,value
2023-01-22T00:01:09.532Z,4.90
2023-01-22T00:03:37.383Z,4.90
2023-01-22T00:06:05.570Z,4.80
2023-01-22T00:08:32.952Z,4.80
2023-01-22T00:11:00.260Z,4.80
2023-01-22T00:13:28.206Z,4.80
2023-01-22T00:15:57.975Z,4.80
2023-01-22T00:18:25.473Z,4.80
2023-01-22T00:20:54.420Z,4.80
2023-01-22T00:23:22.342Z,4.80
2023-01-22T00:25:49.370Z,4.80
2023-01-22T00:28:17.053Z,4.80
2023-01-22T00:30:45.900Z,4.90
2023-01-22T00:33:12.966Z,4.90
2023-01-22T00:35:39.975Z,4.90
2023-01-22T00:38:07.170Z,4.90
2023-01-22T00:40:34.414Z,4.80
2023-01-22T00:43:01.397Z,4.80
2023-01-22T00:45:28.419Z,4.80
2023-01-22T00:47:55.381Z,4.80
2023-01-22T00:50:22.566Z,4.80
2023-01-22T00:52:49.623Z,4.90
2023-01-22T00:55:17.016Z,4.90
2023-01-22T00:57:43.946Z,4.80
2023-01-22T01:00:14.812Z,4.80
2023-01-22T01:03:00.974Z,4.80
2023-01-22T01:05:28.334Z,4.80
2023-01-22T01:07:55.279Z,4.90
2023-01-22T01:10:22.306Z,4.90
2023-01-22T01:12:49.246Z,4.80
2023-01-22T01:15:19.824Z,4.80
2023-01-22T01:17:46.865Z,4.80
2023-01-22T01:20:13.934Z,4.80
2023-01-22T01:22:40.906Z,4.80
2023-01-22T01:25:08.301Z,4.90
2023-01-22T01:27:35.267Z,4.80
2023-01-22T01:30:03.709Z,4.80
2023-01-22T01:32:30.607Z,4.90
2023-01-22T01:34:57.559Z,4.90
2023-01-22T01:37:24.572Z,4.80
2023-01-22T01:39:52.653Z,4.90
2023-01-22T01:42:31.263Z,4.90
2023-01-22T01:45:26.453Z,4.90
2023-01-22T01:47:58.442Z,4.90
2023-01-22T01:50:27.751Z,4.90
2023-01-22T01:52:57.874Z,4.80
2023-01-22T01:55:29.466Z,4.80
2023-01-22T01:58:04.870Z,4.80
2023-01-22T02:00:36.307Z,4.80
2023-01-22T02:03:04.371Z,4.90
2023-01-22T02:05:37.844Z,4.80
2023-01-22T02:08:09.302Z,4.90
2023-01-22T02:10:36.671Z,4.80
2023-01-22T02:13:10.327Z,4.80
2023-01-22T02:15:38.705Z,4.80
2023-01-22T02:18:05.836Z,4.80
2023-01-22T02:20:37.798Z,4.80
2023-01-22T02:23:08.173Z,4.80
2023-01-22T02:25:35.393Z,4.80
2023-01-22T02:28:02.768Z,4.80
2023-01-22T02:30:29.803Z,4.80
2023-01-22T02:32:57.177Z,4.80
2023-01-22T02:35:24.870Z,4.80
2023-01-22T02:37:51.977Z,4.80
2023-01-22T02:40:19.597Z,4.80
2023-01-22T02:42:47.670Z,4.80
2023-01-22T02:45:14.761Z,4.80
2023-01-22T02:47:41.880Z,4.80
2023-01-22T02:50:09.603Z,4.90
2023-01-22T02:52:38.949Z,4.90
2023-01-22T02:55:06.441Z,4.80
2023-01-22T02:57:33.665Z,4.90
2023-01-22T03:00:01.078Z,4.90
2023-01-22T03:02:28.412Z,4.80
2023-01-22T03:05:03.336Z,4.90
2023-01-22T03:07:42.816Z,4.90
2023-01-22T03:10:12.908Z,4.90
2023-01-22T03:12:58.883Z,4.90
2023-01-22T03:15:45.374Z,4.90
2023-01-22T03:18:31.147Z,4.90
2023-01-22T03:21:17.052Z,4.90
2023-01-22T03:23:46.326Z,4.90
2023-01-22T03:26:15.508Z,4.90
2023-01-22T03:28:42.713Z,4.90
2023-01-22T03:31:10.092Z,4.90
2023-01-22T03:33:37.022Z,4.80
2023-01-22T03:36:11.166Z,4.80
2023-01-22T03:38:42.111Z,4.80
2023-01-22T03:41:15.981Z,4.90
2023-01-22T03:43:45.535Z,4.80
2023-01-22T03:46:19.839Z,4.90
2023-01-22T03:48:51.957Z,4.80
2023-01-22T03:51:20.626Z,4.80
2023-01-22T03:53:47.813Z,4.80
2023-01-22T03:56:20.527Z,4.80
2023-01-22T03:58:49.216Z,4.90
2023-01-22T04:01:19.242Z,4.90
2023-01-22T04:03:46.744Z,4.80
2023-01-22T04:06:15.108Z,4.80
2023-01-22T04:08:44.346Z,4.90
2023-01-22T04:11:12.613Z,4.80
2023-01-22T04:13:41.245Z,4.80
2023-01-22T04:16:09.646Z,4.90
2023-01-22T04:19:01.071Z,4.80
2023-01-22T04:21:52.950Z,4.90
2023-01-22T04:24:20.177Z,4.90
2023-01-22T04:26:48.213Z,4.90
2023-01-22T04:29:18.888Z,4.90
2023-01-22T04:31:45.996Z,4.90
2023-01-22T04:34:13.016Z,4.90
2023-01-22T04:37:05.908Z,4.90
2023-01-22T04:39:35.020Z,4.90
2023-01-22T04:42:02.158Z,4.90
2023-01-22T04:44:29.071Z,4.90
2023-01-22T04:46:56.146Z,4.90
2023-01-22T04:49:23.540Z,4.90
2023-01-22T04:51:54.211Z,4.90
2023-01-22T04:54:21.511Z,4.90
2023-01-22T04:56:48.730Z,4.90
2023-01-22T04:59:15.959Z,4.90
2023-01-22T05:01:44.350Z,4.90
2023-01-22T05:04:11.786Z,4.90
2023-01-22T05:06:38.861Z,4.90
2023-01-22T05:09:05.943Z,4.90
2023-01-22T05:11:46.833Z,4.90
2023-01-22T05:14:13.953Z,4.90
2023-01-22T05:16:41.009Z,4.90
2023-01-22T05:19:07.951Z,4.90
2023-01-22T05:21:35.168Z,4.90
2023-01-22T05:24:02.255Z,4.90
2023-01-22T05:26:30.425Z,4.90
2023-01-22T05:29:06.146Z,4.90
2023-01-22T05:31:46.381Z,4.90
2023-01-22T05:34:33.739Z,4.90
2023-01-22T05:37:01.703Z,4.90
2023-01-22T05:39:31.397Z,4.90
2023-01-22T05:42:00.731Z,4.90
2023-01-22T05:44:28.187Z,4.90
2023-01-22T05:46:56.125Z,4.90
2023-01-22T05:49:32.510Z,4.90
2023-01-22T05:51:59.880Z,4.90
2023-01-22T05:54:27.311Z,4.90
2023-01-22T05:56:55.924Z,4.90
2023-01-22T05:59:24.305Z,4.90
2023-01-22T06:01:57.935Z,4.90
2023-01-22T06:04:24.957Z,4.90
2023-01-22T06:06:52.337Z,4.90
2023-01-22T06:09:21.788Z,4.80
2023-01-22T06:11:49.752Z,4.90
2023-01-22T06:14:17.041Z,4.90
2023-01-22T06:16:44.385Z,4.80
2023-01-22T06:19:16.083Z,4.80
2023-01-22T06:21:51.825Z,4.90
2023-01-22T06:24:24.624Z,4.90
2023-01-22T06:26:52.612Z,4.90
2023-01-22T06:29:21.072Z,4.90
2023-01-22T06:31:48.173Z,4.90
2023-01-22T06:34:18.374Z,4.90
2023-01-22T06:36:45.965Z,4.90
2023-01-22T06:39:14.863Z,4.90
2023-01-22T06:41:50.319Z,4.90
2023-01-22T06:44:18.988Z,4.90
2023-01-22T06:46:47.444Z,4.90
2023-01-22T06:49:21.612Z,4.90
2023-01-22T06:51:48.786Z,4.90
2023-01-22T06:54:15.912Z,4.90
2023-01-22T06:56:43.543Z,4.90
2023-01-22T06:59:12.716Z,4.90
2023-01-22T07:01:39.921Z,4.90
2023-01-22T07:04:06.998Z,4.90
2023-01-22T07:06:34.162Z,4.90
2023-01-22T07:09:01.162Z,4.90
2023-01-22T07:11:28.187Z,4.90
2023-01-22T07:13:56.256Z,4.90
2023-01-22T07:16:23.333Z,4.90
2023-01-22T07:18:50.406Z,4.90
2023-01-22T07:21:17.353Z,4.90
2023-01-22T07:23:44.387Z,4.90
2023-01-22T07:26:15.183Z,4.90
2023-01-22T07:28:43.443Z,4.90
2023-01-22T07:31:12.424Z,4.90
2023-01-22T07:33:39.453Z,4.90
2023-01-22T07:36:06.923Z,4.90
2023-01-22T07:38:34.016Z,4.90
2023-01-22T07:41:24.924Z,4.90
2023-01-22T07:43:53.714Z,4.90
2023-01-22T07:46:20.871Z,4.90
2023-01-22T07:48:47.972Z,4.90
2023-01-22T07:51:15.183Z,4.90
2023-01-22T07:53:42.899Z,4.90
2023-01-22T07:56:10.016Z,4.90
2023-01-22T07:58:36.988Z,4.90
2023-01-22T08:01:08.049Z,4.90
2023-01-22T08:03:35.107Z,4.90
2023-01-22T08:06:02.249Z,4.90
2023-01-22T08:08:29.261Z,4.90
2023-01-22T08:10:59.614Z,4.90
2023-01-22T08:13:26.750Z,4.90
2023-01-22T08:15:55.132Z,4.90
2023-01-22T08:18:23.087Z,4.90
2023-01-22T08:20:50.382Z,4.90
2023-01-22T08:23:17.349Z,4.90
2023-01-22T08:25:44.408Z,4.90
2023-01-22T08:28:11.341Z,4.90
2023-01-22T08:30:45.999Z,4.90
2023-01-22T08:33:15.706Z,5.00
2023-01-22T08:35:42.959Z,5.00
2023-01-22T08:38:09.909Z,5.00
2023-01-22T08:40:38.050Z,5.00
2023-01-22T08:43:05.249Z,5.00
2023-01-22T08:45:32.285Z,5.00
2023-01-22T08:48:00.349Z,5.00
2023-01-22T08:50:29.417Z,5.00
2023-01-22T08:52:57.915Z,5.00
2023-01-22T08:55:27.692Z,5.00
2023-01-22T08:57:58.439Z,5.00
2023-01-22T09:00:26.407Z,5.10
2023-01-22T09:02:58.763Z,5.10
2023-01-22T09:05:27.036Z,5.10
2023-01-22T09:07:54.117Z,5.10
2023-01-22T09:10:22.080Z,5.10
2023-01-22T09:12:49.662Z,5.10
2023-01-22T09:15:16.718Z,5.10
2023-01-22T09:17:43.846Z,5.10
2023-01-22T09:20:10.960Z,5.10
2023-01-22T09:22:37.984Z,5.20
2023-01-22T09:25:05.326Z,5.20
2023-01-22T09:27:32.515Z,5.20
2023-01-22T09:30:00.167Z,5.20
2023-01-22T09:32:27.186Z,5.20
2023-01-22T09:34:54.137Z,5.20
2023-01-22T09:37:21.698Z,5.30
2023-01-22T09:39:49.935Z,5.30
2023-01-22T09:42:40.565Z,5.30
2023-01-22T09:45:12.220Z,5.30
2023-01-22T09:47:59.757Z,5.30
2023-01-22T09:50:29.418Z,5.30
2023-01-22T09:53:05.102Z,5.30
2023-01-22T09:55:40.677Z,5.30
2023-01-22T09:58:15.824Z,5.30
2023-01-22T10:01:01.740Z,5.30
2023-01-22T10:03:36.555Z,5.30
2023-01-22T10:06:06.727Z,5.30
2023-01-22T10:08:39.701Z,5.30
2023-01-22T10:11:10.027Z,5.30
2023-01-22T10:13:39.290Z,5.30
2023-01-22T10:16:06.937Z,5.40
2023-01-22T10:18:42.220Z,5.40
2023-01-22T10:21:18.171Z,5.40
2023-01-22T10:23:45.168Z,5.40
2023-01-22T10:26:33.142Z,5.40
2023-01-22T10:29:07.319Z,5.50
2023-01-22T10:31:42.805Z,5.50
2023-01-22T10:34:30.348Z,5.50
2023-01-22T10:37:03.027Z,5.50
2023-01-22T10:39:43.596Z,5.50
2023-01-22T10:42:23.188Z,5.50
2023-01-22T10:44:54.304Z,5.50
2023-01-22T10:47:24.198Z,5.50
2023-01-22T10:50:07.246Z,5.50
2023-01-22T10:52:38.505Z,5.50
2023-01-22T10:55:07.473Z,5.50
2023-01-22T10:57:38.044Z,5.50
2023-01-22T11:00:14.559Z,5.50
2023-01-22T11:02:44.294Z,5.50
2023-01-22T11:05:25.792Z,5.50
2023-01-22T11:08:16.835Z,5.50
2023-01-22T11:10:43.750Z,5.50
2023-01-22T11:13:20.157Z,5.50
2023-01-22T11:15:53.872Z,5.50
2023-01-22T11:18:37.067Z,5.50
2023-01-22T11:21:15.242Z,5.50
2023-01-22T11:24:21.896Z,5.50
2023-01-22T11:27:20.143Z,5.50
2023-01-22T11:30:31.030Z,5.50
2023-01-22T11:33:13.495Z,5.50
2023-01-22T11:35:46.790Z,5.50
2023-01-22T11:38:19.260Z,5.50
2023-01-22T11:41:02.098Z,5.50
2023-01-22T11:43:47.839Z,5.50
2023-01-22T11:46:38.041Z,5.50
2023-01-22T11:49:23.305Z,5.60
2023-01-22T11:51:59.937Z,5.60
2023-01-22T11:54:49.054Z,5.60
2023-01-22T11:57:22.657Z,5.60
2023-01-22T11:59:52.501Z,5.60
2023-01-22T12:02:46.603Z,5.60
2023-01-22T12:05:22.573Z,5.60
2023-01-22T12:08:34.380Z,5.60
2023-01-22T12:11:01.334Z,5.60
2023-01-22T12:14:00.937Z,5.60
2023-01-22T12:17:03.513Z,5.60
2023-01-22T12:19:41.899Z,5.60
2023-01-22T12:22:30.514Z,5.60
2023-01-22T12:25:24.822Z,5.50
2023-01-22T12:28:02.584Z,5.50
2023-01-22T12:30:35.924Z,5.50
2023-01-22T12:33:06.948Z,5.50
2023-01-22T12:35:34.110Z,5.40
2023-01-22T12:38:31.348Z,5.50
2023-01-22T12:41:10.419Z,5.50
2023-01-22T12:43:41.520Z,5.50
2023-01-22T12:46:42.808Z,5.50
2023-01-22T12:49:16.329Z,5.50
2023-01-22T12:51:46.936Z,5.50
2023-01-22T12:54:20.520Z,5.50
2023-01-22T12:56:52.778Z,5.50
2023-01-22T12:59:41.165Z,5.50
2023-01-22T13:02:26.742Z,5.50
2023-01-22T13:04:55.017Z,5.50
2023-01-22T13:07:31.239Z,5.50
2023-01-22T13:10:22.343Z,5.50
2023-01-22T13:12:55.676Z,5.50
2023-01-22T13:15:22.808Z,5.50
2023-01-22T13:18:17.372Z,5.50
2023-01-22T13:20:59.711Z,5.50
2023-01-22T13:23:27.229Z,5.50
2023-01-22T13:25:55.696Z,5.50
2023-01-22T13:28:24.037Z,5.50
2023-01-22T13:31:02.010Z,5.50
2023-01-22T13:33:29.416Z,5.50
2023-01-22T13:35:57.367Z,5.50
2023-01-22T13:38:29.859Z,5.50
2023-01-22T13:41:07.229Z,5.50
2023-01-22T13:43:36.675Z,5.50
2023-01-22T13:46:04.457Z,5.50
2023-01-22T13:48:31.733Z,5.40
2023-01-22T13:51:07.259Z,5.50
2023-01-22T13:53:39.658Z,5.50
2023-01-22T13:56:10.942Z,5.50
2023-01-22T13:58:49.360Z,5.40
2023-01-22T14:01:30.945Z,5.40
2023-01-22T14:04:24.263Z,5.40
2023-01-22T14:06:51.257Z,5.40
2023-01-22T14:09:32.319Z,5.40
2023-01-22T14:12:00.955Z,5.40
2023-01-22T14:14:40.074Z,5.40
2023-01-22T14:17:07.229Z,5.40
2023-01-22T14:19:34.463Z,5.40
2023-01-22T14:22:01.464Z,5.40
2023-01-22T14:24:28.403Z,5.40
2023-01-22T14:26:57.265Z,5.30
2023-01-22T14:29:24.256Z,5.30
2023-01-22T14:31:51.265Z,5.30
2023-01-22T14:34:18.750Z,5.30
2023-01-22T14:36:48.259Z,5.30
2023-01-22T14:39:15.765Z,5.30
2023-01-22T14:41:43.000Z,5.30
2023-01-22T14:44:11.002Z,5.30
2023-01-22T14:46:38.310Z,5.30
2023-01-22T14:49:05.940Z,5.30
2023-01-22T14:51:32.998Z,5.30
2023-01-22T14:53:59.993Z,5.30
2023-01-22T14:56:26.971Z,5.30
2023-01-22T14:58:53.979Z,5.30
2023-01-22T15:01:22.911Z,5.30
2023-01-22T15:03:50.194Z,5.30
2023-01-22T15:06:17.175Z,5.30
2023-01-22T15:08:44.222Z,5.30
2023-01-22T15:11:11.475Z,5.20
2023-01-22T15:13:38.727Z,5.20
2023-01-22T15:16:08.318Z,5.20
2023-01-22T15:18:36.663Z,5.20
2023-01-22T15:21:04.849Z,5.20
2023-01-22T15:23:33.338Z,5.20
2023-01-22T15:26:06.035Z,5.20
2023-01-22T15:28:33.466Z,5.20
2023-01-22T15:31:07.812Z,5.20
2023-01-22T15:33:36.063Z,5.20
2023-01-22T15:36:04.739Z,5.20
2023-01-22T15:38:31.905Z,5.20
2023-01-22T15:41:07.313Z,5.20
2023-01-22T15:43:37.416Z,5.10
2023-01-22T15:46:04.569Z,5.10
2023-01-22T15:48:31.686Z,5.10
2023-01-22T15:51:10.655Z,5.10
2023-01-22T15:53:37.844Z,5.10
2023-01-22T15:56:05.563Z,5.10
2023-01-22T15:58:34.422Z,5.10
2023-01-22T16:01:01.943Z,5.10
2023-01-22T16:03:29.011Z,5.10
2023-01-22T16:05:56.053Z,5.10
2023-01-22T16:08:23.060Z,5.10
2023-01-22T16:10:50.110Z,5.10
2023-01-22T16:13:17.036Z,5.10
2023-01-22T16:15:43.953Z,5.10
2023-01-22T16:18:11.049Z,5.10
2023-01-22T16:20:37.984Z,5.00
2023-01-22T16:23:06.949Z,5.00
2023-01-22T16:25:34.893Z,5.00
2023-01-22T16:28:02.240Z,5.00
2023-01-22T16:30:29.320Z,5.00
2023-01-22T16:32:56.467Z,5.00
2023-01-22T16:35:23.441Z,5.00
2023-01-22T16:37:50.493Z,5.00
2023-01-22T16:40:18.540Z,5.00
2023-01-22T16:42:59.580Z,5.00
2023-01-22T16:45:26.686Z,5.00
2023-01-22T16:47:53.702Z,5.00
2023-01-22T16:50:20.908Z,5.00
2023-01-22T16:52:48.097Z,5.00
2023-01-22T16:55:15.169Z,5.00
2023-01-22T16:57:42.298Z,5.00
2023-01-22T17:00:09.955Z,5.00
2023-01-22T17:02:36.992Z,5.00
2023-01-22T17:05:06.468Z,5.00
2023-01-22T17:07:34.440Z,5.00
2023-01-22T17:10:01.898Z,5.00
2023-01-22T17:12:29.289Z,5.00
2023-01-22T17:14:56.633Z,5.00
2023-01-22T17:17:23.653Z,5.00
2023-01-22T17:19:50.700Z,5.00
2023-01-22T17:22:18.027Z,5.00
2023-01-22T17:24:45.255Z,5.00
2023-01-22T17:27:18.267Z,5.00
2023-01-22T17:29:45.433Z,5.00
2023-01-22T17:32:12.584Z,5.00
2023-01-22T17:34:41.916Z,5.00
2023-01-22T17:37:13.649Z,5.00
2023-01-22T17:39:42.925Z,5.00
2023-01-22T17:42:09.839Z,5.00
2023-01-22T17:44:36.962Z,5.00
2023-01-22T17:47:05.826Z,5.00
2023-01-22T17:49:35.031Z,5.00
2023-01-22T17:52:02.415Z,5.00
2023-01-22T17:54:29.590Z,5.00
2023-01-22T17:56:56.566Z,5.00
2023-01-22T17:59:24.495Z,5.00
2023-01-22T18:01:51.898Z,5.00
2023-01-22T18:04:19.187Z,5.00
2023-01-22T18:06:46.201Z,5.00
2023-01-22T18:09:13.504Z,4.90
2023-01-22T18:11:41.279Z,4.90
2023-01-22T18:14:12.382Z,4.90
2023-01-22T18:16:40.981Z,4.90
2023-01-22T18:19:07.985Z,5.00
2023-01-22T18:21:36.936Z,4.90
2023-01-22T18:24:06.576Z,4.90
2023-01-22T18:26:34.381Z,4.90
2023-01-22T18:29:02.045Z,4.90
2023-01-22T18:31:30.163Z,4.90
2023-01-22T18:34:01.402Z,5.00
2023-01-22T18:36:34.853Z,5.00
2023-01-22T18:39:06.106Z,5.00
2023-01-22T18:41:33.807Z,5.00
2023-01-22T18:44:02.527Z,5.00
2023-01-22T18:46:33.642Z,5.00
2023-01-22T18:49:03.453Z,5.00
2023-01-22T18:51:31.480Z,5.00
2023-01-22T18:53:59.485Z,5.00
2023-01-22T18:56:26.647Z,4.90
2023-01-22T18:58:55.334Z,4.90
2023-01-22T19:01:26.803Z,4.90
2023-01-22T19:04:00.313Z,5.00
2023-01-22T19:06:30.029Z,4.90
2023-01-22T19:08:59.465Z,5.00
2023-01-22T19:11:26.721Z,4.90
2023-01-22T19:13:57.154Z,4.90
2023-01-22T19:16:25.306Z,4.90
2023-01-22T19:19:00.832Z,4.90
2023-01-22T19:21:28.287Z,4.90
2023-01-22T19:23:58.081Z,4.90
2023-01-22T19:26:31.244Z,4.90
2023-01-22T19:29:00.925Z,4.90
2023-01-22T19:31:31.102Z,4.90
2023-01-22T19:33:59.380Z,4.90
2023-01-22T19:36:29.854Z,4.90
2023-01-22T19:38:58.962Z,4.90
2023-01-22T19:41:27.197Z,4.90
2023-01-22T19:43:55.439Z,5.00
2023-01-22T19:46:23.376Z,4.90
2023-01-22T19:48:50.488Z,5.00
2023-01-22T19:51:18.324Z,5.00
2023-01-22T19:53:47.739Z,4.90
2023-01-22T19:56:32.352Z,4.90
2023-01-22T19:59:03.145Z,4.90
2023-01-22T20:01:30.169Z,5.00
2023-01-22T20:03:57.178Z,4.90
2023-01-22T20:06:25.347Z,4.90
2023-01-22T20:08:55.087Z,4.90
2023-01-22T20:11:22.445Z,4.90
2023-01-22T20:13:49.553Z,4.90
2023-01-22T20:16:18.635Z,4.90
2023-01-22T20:18:46.347Z,4.90
2023-01-22T20:21:14.503Z,4.90
2023-01-22T20:23:41.815Z,5.00
2023-01-22T20:26:09.894Z,4.90
2023-01-22T20:28:37.587Z,5.00
2023-01-22T20:31:06.913Z,5.00
2023-01-22T20:33:33.974Z,5.00
2023-01-22T20:36:04.405Z,5.00
2023-01-22T20:38:31.407Z,5.00
2023-01-22T20:41:09.274Z,5.00
2023-01-22T20:43:41.399Z,5.00
2023-01-22T20:46:17.815Z,5.00
2023-01-22T20:48:45.541Z,5.00
2023-01-22T20:51:22.332Z,5.00
2023-01-22T20:53:51.642Z,5.00
2023-01-22T20:56:22.755Z,5.00
2023-01-22T20:58:57.201Z,5.00
2023-01-22T21:01:25.208Z,5.00
2023-01-22T21:03:53.779Z,5.00
2023-01-22T21:06:21.296Z,5.00
2023-01-22T21:08:53.317Z,5.00
2023-01-22T21:11:21.263Z,5.00
2023-01-22T21:13:50.256Z,5.00
2023-01-22T21:16:26.190Z,5.00
2023-01-22T21:19:02.147Z,5.00
2023-01-22T21:21:30.982Z,5.00
2023-01-22T21:23:58.814Z,5.00
2023-01-22T21:26:31.190Z,5.00
2023-01-22T21:29:04.637Z,5.00
2023-01-22T21:31:31.831Z,5.00
2023-01-22T21:34:03.715Z,5.00
2023-01-22T21:36:34.633Z,5.00
2023-01-22T21:39:02.468Z,5.00
2023-01-22T21:41:29.646Z,5.00
2023-01-22T21:44:15.280Z,5.00
2023-01-22T21:46:44.586Z,5.00
2023-01-22T21:49:17.585Z,5.00
2023-01-22T21:51:49.526Z,5.00
2023-01-22T21:54:23.239Z,5.00
2023-01-22T21:56:50.723Z,5.00
2023-01-22T21:59:18.008Z,4.90
2023-01-22T22:01:46.029Z,4.90
2023-01-22T22:04:17.527Z,4.90
2023-01-22T22:06:44.728Z,4.90
2023-01-22T22:09:17.629Z,4.90
2023-01-22T22:11:45.259Z,4.90
2023-01-22T22:14:13.678Z,5.00
2023-01-22T22:16:40.806Z,5.00
2023-01-22T22:19:07.966Z,5.00
2023-01-22T22:21:35.763Z,5.00
2023-01-22T22:24:02.871Z,5.00
2023-01-22T22:26:29.957Z,5.00
2023-01-22T22:28:57.385Z,5.00
2023-01-22T22:31:25.076Z,5.00
2023-01-22T22:33:54.706Z,5.00
2023-01-22T22:36:24.943Z,5.00
2023-01-22T22:38:52.733Z,5.00
2023-01-22T22:41:25.939Z,5.00
2023-01-22T22:43:54.693Z,5.00
2023-01-22T22:46:30.120Z,5.00
2023-01-22T22:48:59.821Z,5.00
2023-01-22T22:51:30.326Z,5.00
2023-01-22T22:54:00.017Z,5.00
2023-01-22T22:56:28.632Z,5.10
2023-01-22T22:58:56.620Z,5.00
2023-01-22T23:01:25.177Z,5.00
2023-01-22T23:03:53.636Z,5.10
2023-01-22T23:06:26.361Z,5.10
2023-01-22T23:09:09.217Z,5.10
2023-01-22T23:11:39.292Z,5.10
2023-01-22T23:14:06.426Z,5.10
2023-01-22T23:16:36.875Z,5.10
2023-01-22T23:19:07.111Z,5.10
2023-01-22T23:21:35.332Z,5.10
2023-01-22T23:24:03.304Z,5.10
2023-01-22T23:26:31.117Z,5.10
2023-01-22T23:29:02.165Z,5.10
2023-01-22T23:31:31.627Z,5.10
2023-01-22T23:33:59.776Z,5.10
2023-01-22T23:36:27.101Z,5.10
2023-01-22T23:38:54.857Z,5.10
2023-01-22T23:41:23.107Z,5.10
2023-01-22T23:43:50.812Z,5.10
2023-01-22T23:46:23.481Z,5.10
2023-01-22T23:48:51.160Z,5.10
2023-01-22T23:51:19.368Z,5.10
2023-01-22T23:53:48.443Z,5.10
2023-01-22T23:56:16.311Z,5.10
2023-01-22T23:58:43.574Z,5.10
